createdAt,value
2023-11-30T00:00:13.916Z,0.00
2023-11-30T00:01:13.958Z,0.00
2023-11-30T00:02:13.948Z,0.00
2023-11-30T00:03:13.928Z,0.00
2023-11-30T00:04:13.900Z,0.00
2023-11-30T00:05:13.842Z,0.00
2023-11-30T00:06:13.867Z,0.00
2023-11-30T00:07:13.835Z,0.00
2023-11-30T00:08:13.815Z,0.00
2023-11-30T00:09:13.831Z,0.00
2023-11-30T00:10:13.791Z,0.00
2023-11-30T00:11:13.792Z,0.00
2023-11-30T00:12:13.804Z,0.00
2023-11-30T00:13:13.778Z,0.00
2023-11-30T00:14:13.747Z,0.00
2023-11-30T00:15:13.769Z,0.00
2023-11-30T00:16:13.742Z,0.00
2023-11-30T00:17:13.726Z,0.00
2023-11-30T00:18:13.802Z,0.00
2023-11-30T00:19:13.690Z,0.00
2023-11-30T00:20:13.701Z,0.00
2023-11-30T00:21:13.746Z,0.00
2023-11-30T00:22:13.673Z,0.00
2023-11-30T00:23:13.659Z,0.00
2023-11-30T00:24:13.664Z,0.00
2023-11-30T00:25:13.626Z,0.00
2023-11-30T00:26:13.617Z,0.00
2023-11-30T00:27:13.649Z,0.00
2023-11-30T00:28:13.608Z,0.00
2023-11-30T00:29:13.583Z,0.00
2023-11-30T00:30:13.661Z,0.00
2023-11-30T00:31:13.590Z,0.00
2023-11-30T00:32:13.553Z,0.00
2023-11-30T00:33:13.659Z,0.00
2023-11-30T00:34:13.552Z,0.00
2023-11-30T00:35:13.522Z,0.00
2023-11-30T00:36:13.567Z,0.00
2023-11-30T00:37:13.501Z,0.00
2023-11-30T00:38:13.494Z,0.00
2023-11-30T00:39:13.527Z,0.00
2023-11-30T00:40:13.474Z,0.00
2023-11-30T00:41:13.472Z,0.00
2023-11-30T00:42:13.513Z,0.00
2023-11-30T00:43:13.489Z,0.00
2023-11-30T00:44:13.454Z,0.00
2023-11-30T00:45:13.435Z,0.00
2023-11-30T00:46:13.428Z,0.00
2023-11-30T00:47:13.402Z,0.00
2023-11-30T00:48:13.484Z,0.00
2023-11-30T00:49:13.373Z,0.00
2023-11-30T00:50:13.383Z,0.00
2023-11-30T00:51:13.362Z,0.00
2023-11-30T00:52:13.359Z,0.00
2023-11-30T00:53:13.334Z,0.00
2023-11-30T00:54:13.375Z,0.00
2023-11-30T00:55:13.328Z,0.00
2023-11-30T00:56:13.305Z,0.00
2023-11-30T00:57:13.305Z,0.00
2023-11-30T00:58:13.294Z,0.00
2023-11-30T00:59:13.288Z,0.00
2023-11-30T01:00:13.274Z,0.00
2023-11-30T01:01:13.272Z,0.00
2023-11-30T01:02:13.256Z,0.00
2023-11-30T01:03:13.261Z,0.00
2023-11-30T01:04:13.269Z,0.00
2023-11-30T01:05:13.214Z,0.00
2023-11-30T01:06:13.256Z,0.00
2023-11-30T01:07:13.178Z,0.00
2023-11-30T01:08:13.189Z,0.00
2023-11-30T01:09:13.205Z,0.00
2023-11-30T01:10:13.147Z,0.00
2023-11-30T01:11:13.169Z,0.00
2023-11-30T01:12:13.151Z,0.00
2023-11-30T01:13:13.116Z,0.00
2023-11-30T01:14:13.157Z,0.00
2023-11-30T01:15:13.130Z,0.00
2023-11-30T01:16:13.121Z,0.00
2023-11-30T01:17:13.080Z,0.00
2023-11-30T01:18:13.224Z,0.00
2023-11-30T01:19:13.083Z,0.00
2023-11-30T01:20:13.033Z,0.00
2023-11-30T01:21:13.065Z,0.00
2023-11-30T01:22:13.068Z,0.00
2023-11-30T01:23:13.022Z,0.00
2023-11-30T01:24:13.039Z,0.00
2023-11-30T01:25:12.982Z,0.00
2023-11-30T01:26:12.990Z,0.00
2023-11-30T01:27:12.988Z,0.00
2023-11-30T01:28:12.965Z,0.00
2023-11-30T01:29:12.977Z,0.00
2023-11-30T01:30:13.010Z,0.00
2023-11-30T01:31:12.955Z,0.00
2023-11-30T01:32:12.914Z,0.00
2023-11-30T01:33:13.027Z,0.00
2023-11-30T01:34:12.908Z,0.00
2023-11-30T01:35:12.908Z,0.00
2023-11-30T01:36:12.884Z,0.00
2023-11-30T01:37:12.862Z,0.00
2023-11-30T01:38:12.878Z,0.00
2023-11-30T01:39:12.852Z,0.00
2023-11-30T01:40:12.857Z,0.00
2023-11-30T01:41:12.836Z,0.00
2023-11-30T01:42:12.833Z,0.00
2023-11-30T01:43:12.799Z,0.00
2023-11-30T01:44:12.801Z,0.00
2023-11-30T01:45:12.827Z,0.00
2023-11-30T01:46:12.858Z,0.00
2023-11-30T01:47:12.758Z,0.00
2023-11-30T01:48:12.885Z,0.00
2023-11-30T01:49:12.759Z,0.00
2023-11-30T01:50:12.747Z,0.00
2023-11-30T01:51:12.745Z,0.00
2023-11-30T01:52:12.771Z,0.00
2023-11-30T01:53:12.691Z,0.00
2023-11-30T01:54:12.768Z,0.00
2023-11-30T01:55:12.671Z,0.00
2023-11-30T01:56:12.677Z,0.00
2023-11-30T01:57:12.690Z,0.00
2023-11-30T01:58:12.645Z,0.00
2023-11-30T01:59:12.628Z,0.00
2023-11-30T02:00:12.670Z,0.00
2023-11-30T02:01:12.646Z,0.00
2023-11-30T02:02:12.643Z,0.00
2023-11-30T02:03:12.674Z,0.00
2023-11-30T02:04:12.684Z,0.00
2023-11-30T02:05:12.588Z,0.00
2023-11-30T02:06:12.568Z,0.00
2023-11-30T02:07:12.560Z,0.00
2023-11-30T02:08:12.532Z,0.00
2023-11-30T02:09:12.559Z,0.00
2023-11-30T02:10:12.556Z,0.00
2023-11-30T02:11:12.559Z,0.00
2023-11-30T02:12:12.536Z,0.00
2023-11-30T02:13:12.489Z,0.00
2023-11-30T02:15:31.200Z,0.00
2023-11-30T02:16:31.151Z,0.00
2023-11-30T02:17:31.186Z,0.00
2023-11-30T02:18:31.171Z,0.00
2023-11-30T02:19:31.124Z,0.00
2023-11-30T02:20:31.110Z,0.00
2023-11-30T02:21:31.162Z,0.00
2023-11-30T02:22:31.088Z,0.00
2023-11-30T02:23:31.093Z,0.00
2023-11-30T02:24:31.100Z,0.00
2023-11-30T02:25:31.103Z,0.00
2023-11-30T02:26:31.030Z,0.00
2023-11-30T02:27:31.056Z,0.00
2023-11-30T02:28:31.012Z,0.00
2023-11-30T02:29:31.011Z,0.00
2023-11-30T02:30:31.072Z,0.00
2023-11-30T02:31:31.013Z,0.00
2023-11-30T02:32:31.000Z,0.00
2023-11-30T02:33:30.989Z,0.00
2023-11-30T02:34:30.974Z,0.00
2023-11-30T02:35:30.939Z,0.00
2023-11-30T02:36:30.978Z,0.00
2023-11-30T02:37:30.916Z,0.00
2023-11-30T02:38:30.928Z,0.00
2023-11-30T02:39:30.958Z,0.00
2023-11-30T02:40:30.879Z,0.00
2023-11-30T02:41:30.896Z,0.00
2023-11-30T02:42:30.948Z,0.00
2023-11-30T02:43:30.882Z,0.00
2023-11-30T02:44:30.873Z,0.00
2023-11-30T02:45:30.897Z,0.00
2023-11-30T02:46:30.884Z,0.00
2023-11-30T02:47:30.831Z,0.00
2023-11-30T02:48:30.866Z,0.00
2023-11-30T02:49:30.806Z,0.00
2023-11-30T02:50:30.777Z,0.00
2023-11-30T02:51:30.801Z,0.00
2023-11-30T02:52:30.771Z,0.00
2023-11-30T02:53:30.756Z,0.00
2023-11-30T02:54:30.781Z,0.00
2023-11-30T02:55:30.749Z,0.00
2023-11-30T02:56:30.715Z,0.00
2023-11-30T02:57:30.819Z,0.00
2023-11-30T02:58:30.704Z,0.00
2023-11-30T02:59:30.700Z,0.00
2023-11-30T03:00:30.708Z,0.00
2023-11-30T03:01:30.750Z,0.00
2023-11-30T03:02:30.698Z,0.00
2023-11-30T03:03:30.844Z,0.00
2023-11-30T03:04:30.629Z,0.00
2023-11-30T03:05:30.626Z,0.00
2023-11-30T03:06:30.641Z,0.00
2023-11-30T03:07:30.648Z,0.00
2023-11-30T03:08:30.589Z,0.00
2023-11-30T03:09:30.646Z,0.00
2023-11-30T03:10:30.634Z,0.00
2023-11-30T03:11:30.551Z,0.00
2023-11-30T03:12:30.619Z,0.00
2023-11-30T03:13:30.551Z,0.00
2023-11-30T03:14:30.537Z,0.00
2023-11-30T03:15:30.576Z,0.00
2023-11-30T03:16:30.551Z,0.00
2023-11-30T03:17:30.565Z,0.00
2023-11-30T03:18:30.614Z,0.00
2023-11-30T03:19:30.488Z,0.00
2023-11-30T03:20:30.453Z,0.00
2023-11-30T03:21:30.570Z,0.00
2023-11-30T03:22:30.434Z,0.00
2023-11-30T03:23:30.425Z,0.00
2023-11-30T03:24:30.461Z,0.00
2023-11-30T03:25:30.411Z,0.00
2023-11-30T03:26:30.405Z,0.00
2023-11-30T03:27:30.412Z,0.00
2023-11-30T03:28:30.413Z,0.00
2023-11-30T03:29:30.380Z,0.00
2023-11-30T03:30:30.381Z,0.00
2023-11-30T03:31:30.395Z,0.00
2023-11-30T03:32:30.349Z,0.00
2023-11-30T03:33:30.384Z,0.00
2023-11-30T03:34:30.310Z,0.00
2023-11-30T03:35:30.308Z,0.00
2023-11-30T03:36:30.520Z,0.00
2023-11-30T03:37:30.273Z,0.00
2023-11-30T03:38:30.274Z,0.00
2023-11-30T03:39:30.351Z,0.00
2023-11-30T03:40:30.239Z,0.00
2023-11-30T03:41:30.256Z,0.00
2023-11-30T03:42:30.305Z,0.00
2023-11-30T03:43:30.228Z,0.00
2023-11-30T03:44:30.203Z,0.00
2023-11-30T03:45:32.713Z,0.00
2023-11-30T03:46:30.372Z,0.00
2023-11-30T03:47:30.199Z,0.00
2023-11-30T03:48:30.207Z,0.00
2023-11-30T03:49:30.152Z,0.00
2023-11-30T03:50:30.136Z,0.00
2023-11-30T03:51:30.175Z,0.00
2023-11-30T03:52:30.133Z,0.00
2023-11-30T03:53:30.120Z,0.00
2023-11-30T03:54:30.153Z,0.00
2023-11-30T03:55:30.111Z,0.00
2023-11-30T03:56:30.062Z,0.00
2023-11-30T03:57:30.105Z,0.00
2023-11-30T03:58:30.060Z,0.00
2023-11-30T03:59:30.035Z,0.00
2023-11-30T04:00:30.099Z,0.00
2023-11-30T04:01:30.167Z,0.00
2023-11-30T04:02:30.112Z,0.00
2023-11-30T04:03:30.119Z,0.00
2023-11-30T04:04:30.374Z,0.00
2023-11-30T04:05:29.972Z,0.00
2023-11-30T04:06:29.994Z,0.00
2023-11-30T04:07:29.978Z,0.00
2023-11-30T04:08:29.946Z,0.00
2023-11-30T04:09:29.975Z,0.00
2023-11-30T04:10:29.913Z,0.00
2023-11-30T04:11:29.913Z,0.00
2023-11-30T04:12:29.919Z,0.00
2023-11-30T04:13:29.913Z,0.00
2023-11-30T04:14:29.882Z,0.00
2023-11-30T04:15:29.909Z,0.00
2023-11-30T04:16:29.941Z,0.00
2023-11-30T04:17:29.884Z,0.00
2023-11-30T04:18:29.913Z,0.00
2023-11-30T04:19:29.897Z,0.00
2023-11-30T04:20:29.814Z,0.00
2023-11-30T04:21:29.835Z,0.00
2023-11-30T04:22:29.814Z,0.00
2023-11-30T04:23:29.769Z,0.00
2023-11-30T04:24:29.801Z,0.00
2023-11-30T04:25:29.800Z,0.00
2023-11-30T04:26:29.763Z,0.00
2023-11-30T04:27:29.811Z,0.00
2023-11-30T04:28:29.723Z,0.00
2023-11-30T04:29:29.712Z,0.00
2023-11-30T04:30:29.813Z,0.00
2023-11-30T04:31:29.891Z,0.00
2023-11-30T04:32:29.696Z,0.00
2023-11-30T04:33:29.757Z,0.00
2023-11-30T04:34:29.651Z,0.00
2023-11-30T04:35:29.651Z,0.00
2023-11-30T04:36:29.745Z,0.00
2023-11-30T04:37:29.657Z,0.00
2023-11-30T04:38:29.613Z,0.00
2023-11-30T04:39:29.652Z,0.00
2023-11-30T04:40:29.594Z,0.00
2023-11-30T04:41:29.581Z,0.00
2023-11-30T04:42:29.627Z,0.00
2023-11-30T04:43:29.565Z,0.00
2023-11-30T04:44:29.561Z,0.00
2023-11-30T04:45:29.578Z,0.00
2023-11-30T04:46:29.551Z,0.00
2023-11-30T04:47:29.559Z,0.00
2023-11-30T04:48:29.552Z,0.00
2023-11-30T04:49:29.528Z,0.00
2023-11-30T04:50:29.497Z,0.00
2023-11-30T04:51:29.526Z,0.00
2023-11-30T04:52:29.479Z,0.00
2023-11-30T04:53:29.457Z,0.00
2023-11-30T04:54:29.506Z,0.00
2023-11-30T04:55:29.450Z,0.00
2023-11-30T04:56:29.454Z,0.00
2023-11-30T04:57:29.468Z,0.00
2023-11-30T04:58:29.411Z,0.00
2023-11-30T04:59:29.400Z,0.00
2023-11-30T05:00:29.446Z,0.00
2023-11-30T05:01:29.450Z,0.00
2023-11-30T05:02:29.447Z,0.00
2023-11-30T05:03:29.553Z,0.00
2023-11-30T05:04:29.427Z,0.00
2023-11-30T05:05:29.354Z,0.00
2023-11-30T05:06:29.406Z,0.00
2023-11-30T05:07:29.327Z,0.00
2023-11-30T05:08:29.316Z,0.00
2023-11-30T05:09:29.314Z,0.00
2023-11-30T05:10:29.291Z,0.00
2023-11-30T05:11:29.282Z,0.00
2023-11-30T05:12:29.360Z,0.00
2023-11-30T05:13:29.249Z,0.00
2023-11-30T05:14:29.282Z,0.00
2023-11-30T05:15:29.277Z,0.00
2023-11-30T05:16:29.241Z,0.00
2023-11-30T05:17:29.230Z,0.00
2023-11-30T05:18:29.237Z,0.00
2023-11-30T05:19:29.193Z,0.00
2023-11-30T05:20:29.185Z,0.00
2023-11-30T05:21:29.300Z,0.00
2023-11-30T05:22:29.161Z,0.00
2023-11-30T05:23:29.140Z,0.00
2023-11-30T05:24:29.154Z,0.00
2023-11-30T05:25:29.141Z,0.00
2023-11-30T05:26:29.108Z,0.00
2023-11-30T05:27:29.119Z,0.00
2023-11-30T05:28:30.650Z,0.00
2023-11-30T05:29:29.065Z,0.00
2023-11-30T05:30:29.227Z,0.00
2023-11-30T05:31:29.074Z,0.00
2023-11-30T05:32:29.045Z,0.00
2023-11-30T05:33:29.081Z,0.00
2023-11-30T05:34:29.036Z,0.00
2023-11-30T05:35:29.000Z,0.00
2023-11-30T05:36:29.008Z,0.00
2023-11-30T05:37:29.065Z,0.00
2023-11-30T05:38:28.970Z,0.00
2023-11-30T05:39:28.972Z,0.00
2023-11-30T05:40:28.945Z,0.00
2023-11-30T05:41:28.944Z,0.00
2023-11-30T05:42:28.985Z,0.00
2023-11-30T05:43:28.940Z,0.00
2023-11-30T05:44:28.911Z,0.00
2023-11-30T05:45:28.910Z,0.00
2023-11-30T05:46:28.881Z,0.00
2023-11-30T05:47:28.888Z,0.00
2023-11-30T05:48:28.890Z,0.00
2023-11-30T05:49:28.939Z,0.00
2023-11-30T05:50:28.840Z,0.00
2023-11-30T05:51:28.885Z,0.00
2023-11-30T05:52:28.839Z,0.00
2023-11-30T05:53:28.900Z,0.00
2023-11-30T05:54:28.962Z,0.00
2023-11-30T05:55:28.800Z,0.00
2023-11-30T05:56:28.771Z,0.00
2023-11-30T05:57:28.801Z,0.00
2023-11-30T05:58:28.774Z,0.00
2023-11-30T05:59:28.738Z,0.00
2023-11-30T06:00:28.770Z,0.00
2023-11-30T06:01:28.749Z,0.00
2023-11-30T06:02:28.717Z,0.00
2023-11-30T06:03:28.977Z,0.00
2023-11-30T06:04:28.830Z,0.00
2023-11-30T06:05:28.689Z,0.00
2023-11-30T06:06:28.717Z,0.00
2023-11-30T06:07:28.673Z,0.00
2023-11-30T06:08:28.688Z,0.00
2023-11-30T06:09:28.669Z,0.00
2023-11-30T06:10:28.625Z,0.00
2023-11-30T06:11:28.607Z,0.00
2023-11-30T06:12:28.613Z,4.00
2023-11-30T06:13:28.609Z,4.00
2023-11-30T06:14:28.583Z,4.00
2023-11-30T06:15:28.583Z,4.00
2023-11-30T06:16:28.576Z,4.00
2023-11-30T06:17:28.592Z,4.00
2023-11-30T06:18:28.544Z,8.00
2023-11-30T06:19:28.599Z,8.00
2023-11-30T06:20:28.532Z,12.00
2023-11-30T06:21:28.537Z,16.00
2023-11-30T06:22:28.496Z,16.00
2023-11-30T06:23:28.480Z,16.00
2023-11-30T06:24:28.486Z,20.00
2023-11-30T06:25:28.516Z,24.00
2023-11-30T06:26:28.451Z,32.00
2023-11-30T06:27:28.492Z,36.00
2023-11-30T06:28:28.430Z,44.00
2023-11-30T06:29:28.417Z,52.00
2023-11-30T06:30:28.491Z,60.00
2023-11-30T06:31:28.431Z,68.00
2023-11-30T06:32:28.428Z,76.00
2023-11-30T06:33:28.409Z,88.00
2023-11-30T06:34:28.383Z,96.00
2023-11-30T06:35:28.354Z,112.00
2023-11-30T06:36:28.361Z,124.00
2023-11-30T06:37:28.348Z,136.00
2023-11-30T06:38:28.344Z,148.00
2023-11-30T06:39:28.378Z,164.00
2023-11-30T06:40:28.310Z,176.00
2023-11-30T06:41:28.310Z,188.00
2023-11-30T06:42:28.341Z,204.00
2023-11-30T06:43:28.301Z,212.00
2023-11-30T06:44:28.276Z,224.00
2023-11-30T06:45:28.368Z,236.00
2023-11-30T06:46:28.262Z,252.00
2023-11-30T06:47:28.254Z,276.00
2023-11-30T06:48:28.248Z,308.00
2023-11-30T06:49:28.255Z,336.00
2023-11-30T06:50:28.196Z,372.00
2023-11-30T06:51:28.243Z,412.00
2023-11-30T06:52:28.186Z,456.00
2023-11-30T06:53:28.156Z,504.00
2023-11-30T06:54:28.208Z,544.00
2023-11-30T06:55:28.140Z,580.00
2023-11-30T06:56:28.123Z,612.00
2023-11-30T06:57:28.184Z,632.00
2023-11-30T06:58:28.113Z,672.00
2023-11-30T06:59:30.003Z,716.00
2023-11-30T07:00:28.199Z,764.00
2023-11-30T07:01:28.173Z,800.00
2023-11-30T07:02:28.160Z,820.00
2023-11-30T07:03:28.204Z,860.00
2023-11-30T07:04:28.121Z,904.00
2023-11-30T07:05:28.022Z,956.00
2023-11-30T07:06:28.100Z,1008.00
2023-11-30T07:07:34.051Z,1060.00
2023-11-30T07:08:29.004Z,1092.00
2023-11-30T07:09:27.977Z,1124.00
2023-11-30T07:10:27.990Z,1168.00
2023-11-30T07:11:27.959Z,1216.00
2023-11-30T07:12:27.996Z,1260.00
2023-11-30T07:13:27.979Z,1304.00
2023-11-30T07:14:27.924Z,1316.00
2023-11-30T07:15:27.942Z,1312.00
2023-11-30T07:16:27.998Z,1328.00
2023-11-30T07:17:27.938Z,1372.00
2023-11-30T07:18:27.933Z,1400.00
2023-11-30T07:19:27.897Z,1404.00
2023-11-30T07:20:27.883Z,1400.00
2023-11-30T07:21:27.913Z,1424.00
2023-11-30T07:22:27.853Z,1484.00
2023-11-30T07:23:27.843Z,1572.00
2023-11-30T07:24:27.891Z,1648.00
2023-11-30T07:25:27.837Z,1684.00
2023-11-30T07:26:27.829Z,1704.00
2023-11-30T07:27:27.992Z,1744.00
2023-11-30T07:28:27.779Z,1856.00
2023-11-30T07:29:27.795Z,1960.00
2023-11-30T07:30:27.759Z,2020.00
2023-11-30T07:31:27.788Z,2116.00
2023-11-30T07:32:27.770Z,2152.00
2023-11-30T07:33:27.787Z,2124.00
2023-11-30T07:34:27.720Z,2148.00
2023-11-30T07:35:27.700Z,2200.00
2023-11-30T07:36:27.711Z,2240.00
2023-11-30T07:37:27.702Z,2336.00
2023-11-30T07:38:27.681Z,2440.00
2023-11-30T07:39:27.769Z,2472.00
2023-11-30T07:40:27.667Z,2464.00
2023-11-30T07:41:27.647Z,2400.00
2023-11-30T07:42:32.973Z,2348.00
2023-11-30T07:43:28.630Z,2252.00
2023-11-30T07:44:27.613Z,2260.00
2023-11-30T07:45:27.651Z,2328.00
2023-11-30T07:46:27.612Z,2420.00
2023-11-30T07:47:27.627Z,2580.00
2023-11-30T07:48:27.598Z,2680.00
2023-11-30T07:49:27.563Z,2704.00
2023-11-30T07:50:27.554Z,2736.00
2023-11-30T07:51:27.556Z,2736.00
2023-11-30T07:52:27.534Z,2724.00
2023-11-30T07:53:27.525Z,2784.00
2023-11-30T07:54:27.539Z,2816.00
2023-11-30T07:55:27.506Z,2844.00
2023-11-30T07:56:27.488Z,2920.00
2023-11-30T07:57:27.528Z,3040.00
2023-11-30T07:58:27.488Z,3132.00
2023-11-30T07:59:27.447Z,3200.00
2023-11-30T08:00:27.523Z,3212.00
2023-11-30T08:01:27.504Z,3152.00
2023-11-30T08:02:27.408Z,3120.00
2023-11-30T08:03:27.501Z,3116.00
2023-11-30T08:04:27.550Z,3160.00
2023-11-30T08:05:27.381Z,3148.00
2023-11-30T08:06:27.377Z,3040.00
2023-11-30T08:07:27.385Z,2888.00
2023-11-30T08:08:27.345Z,2800.00
2023-11-30T08:09:27.357Z,2796.00
2023-11-30T08:10:27.328Z,2748.00
2023-11-30T08:11:27.326Z,2752.00
2023-11-30T08:12:27.345Z,2728.00
2023-11-30T08:13:27.315Z,2664.00
2023-11-30T08:14:27.286Z,2620.00
2023-11-30T08:15:27.320Z,2624.00
2023-11-30T08:16:27.265Z,2628.00
2023-11-30T08:17:27.292Z,2612.00
2023-11-30T08:18:27.392Z,2592.00
2023-11-30T08:19:27.231Z,2572.00
2023-11-30T08:20:27.216Z,2600.00
2023-11-30T08:21:27.212Z,2664.00
2023-11-30T08:22:27.204Z,2728.00
2023-11-30T08:23:27.204Z,2768.00
2023-11-30T08:24:27.193Z,2848.00
2023-11-30T08:25:27.179Z,2844.00
2023-11-30T08:26:27.177Z,2800.00
2023-11-30T08:27:27.173Z,2792.00
2023-11-30T08:28:27.146Z,2832.00
2023-11-30T08:29:27.120Z,2860.00
2023-11-30T08:30:27.190Z,2904.00
2023-11-30T08:31:27.127Z,2956.00
2023-11-30T08:32:27.109Z,2940.00
2023-11-30T08:33:27.142Z,2936.00
2023-11-30T08:34:27.070Z,3012.00
2023-11-30T08:35:27.058Z,3168.00
2023-11-30T08:36:27.063Z,3276.00
2023-11-30T08:37:27.048Z,3280.00
2023-11-30T08:38:27.029Z,3260.00
2023-11-30T08:39:27.079Z,3244.00
2023-11-30T08:40:27.002Z,3204.00
2023-11-30T08:41:27.040Z,3128.00
2023-11-30T08:42:27.054Z,3016.00
2023-11-30T08:43:26.977Z,2928.00
2023-11-30T08:44:26.966Z,2868.00
2023-11-30T08:45:27.007Z,2848.00
2023-11-30T08:46:26.966Z,2876.00
2023-11-30T08:47:26.969Z,2880.00
2023-11-30T08:48:27.083Z,2896.00
2023-11-30T08:49:26.941Z,2944.00
2023-11-30T08:50:26.907Z,3020.00
2023-11-30T08:51:26.956Z,3092.00
2023-11-30T08:52:26.884Z,3172.00
2023-11-30T08:53:26.868Z,3240.00
2023-11-30T08:54:26.890Z,3352.00
2023-11-30T08:55:26.860Z,3536.00
2023-11-30T08:56:26.841Z,3728.00
2023-11-30T08:57:26.893Z,3864.00
2023-11-30T08:58:26.833Z,3960.00
2023-11-30T08:59:26.821Z,4024.00
2023-11-30T09:00:26.852Z,4136.00
2023-11-30T09:01:26.925Z,4244.00
2023-11-30T09:02:26.836Z,4388.00
2023-11-30T09:03:26.871Z,4564.00
2023-11-30T09:04:26.757Z,4720.00
2023-11-30T09:05:26.776Z,5044.00
2023-11-30T09:06:26.802Z,5396.00
2023-11-30T09:07:26.739Z,5752.00
2023-11-30T09:08:26.704Z,6000.00
2023-11-30T09:09:26.765Z,6364.00
2023-11-30T09:10:26.686Z,6412.00
2023-11-30T09:11:26.677Z,6256.00
2023-11-30T09:12:26.714Z,6272.00
2023-11-30T09:13:26.676Z,6480.00
2023-11-30T09:14:26.664Z,6968.00
2023-11-30T09:15:26.663Z,7304.00
2023-11-30T09:16:26.804Z,7324.00
2023-11-30T09:17:26.654Z,7136.00
2023-11-30T09:18:26.617Z,7156.00
2023-11-30T09:19:26.612Z,7284.00
2023-11-30T09:20:26.598Z,7536.00
2023-11-30T09:21:27.297Z,7836.00
2023-11-30T09:22:26.572Z,7852.00
2023-11-30T09:23:26.554Z,7732.00
2023-11-30T09:24:26.565Z,7600.00
2023-11-30T09:25:26.566Z,7416.00
2023-11-30T09:26:26.538Z,7444.00
2023-11-30T09:27:26.537Z,7372.00
2023-11-30T09:28:26.528Z,7364.00
2023-11-30T09:29:26.509Z,7508.00
2023-11-30T09:30:26.546Z,7864.00
2023-11-30T09:31:26.512Z,8292.00
2023-11-30T09:32:26.480Z,8428.00
2023-11-30T09:33:26.514Z,8308.00
2023-11-30T09:34:26.437Z,8068.00
2023-11-30T09:35:26.495Z,7844.00
2023-11-30T09:36:26.451Z,7872.00
2023-11-30T09:37:26.444Z,7824.00
2023-11-30T09:38:26.409Z,7624.00
2023-11-30T09:39:26.443Z,7448.00
2023-11-30T09:40:26.374Z,7544.00
2023-11-30T09:41:26.363Z,7660.00
2023-11-30T09:42:26.367Z,7636.00
2023-11-30T09:43:26.338Z,7596.00
2023-11-30T09:44:26.359Z,7336.00
2023-11-30T09:45:26.371Z,7156.00
2023-11-30T09:46:26.348Z,7092.00
2023-11-30T09:47:26.308Z,7140.00
2023-11-30T09:48:26.310Z,7316.00
2023-11-30T09:49:26.266Z,7524.00
2023-11-30T09:50:26.265Z,7684.00
2023-11-30T09:51:26.382Z,7692.00
2023-11-30T09:52:26.238Z,7692.00
2023-11-30T09:53:26.258Z,7832.00
2023-11-30T09:54:26.240Z,8044.00
2023-11-30T09:55:26.198Z,8216.00
2023-11-30T09:56:26.189Z,8236.00
2023-11-30T09:57:26.215Z,8228.00
2023-11-30T09:58:26.170Z,8096.00
2023-11-30T09:59:26.170Z,8036.00
2023-11-30T10:00:26.187Z,8256.00
2023-11-30T10:01:26.208Z,8268.00
2023-11-30T10:02:26.147Z,8140.00
2023-11-30T10:03:26.169Z,7940.00
2023-11-30T10:04:26.127Z,7748.00
2023-11-30T10:05:26.097Z,7656.00
2023-11-30T10:06:26.107Z,7724.00
2023-11-30T10:07:26.084Z,7756.00
2023-11-30T10:08:26.061Z,8096.00
2023-11-30T10:09:26.112Z,8408.00
2023-11-30T10:10:26.047Z,8816.00
2023-11-30T10:11:26.034Z,9028.00
2023-11-30T10:12:26.148Z,9140.00
2023-11-30T10:13:26.004Z,9244.00
2023-11-30T10:14:26.019Z,9648.00
2023-11-30T10:15:26.001Z,9736.00
2023-11-30T10:16:25.985Z,9684.00
2023-11-30T10:17:26.035Z,9960.00
2023-11-30T10:18:26.016Z,10152.00
2023-11-30T10:19:25.979Z,10232.00
2023-11-30T10:20:25.920Z,9772.00
2023-11-30T10:21:25.949Z,9756.00
2023-11-30T10:22:25.904Z,9648.00
2023-11-30T10:23:25.999Z,9560.00
2023-11-30T10:24:26.037Z,9608.00
2023-11-30T10:25:25.896Z,9556.00
2023-11-30T10:26:25.864Z,9308.00
2023-11-30T10:27:25.914Z,8904.00
2023-11-30T10:28:25.853Z,9020.00
2023-11-30T10:29:25.838Z,9156.00
2023-11-30T10:30:25.892Z,9484.00
2023-11-30T10:31:25.798Z,9508.00
2023-11-30T10:32:25.792Z,9464.00
2023-11-30T10:33:25.999Z,9420.00
2023-11-30T10:34:25.852Z,9552.00
2023-11-30T10:35:25.764Z,9628.00
2023-11-30T10:36:25.774Z,9488.00
2023-11-30T10:37:25.742Z,9072.00
2023-11-30T10:38:25.762Z,9020.00
2023-11-30T10:39:25.824Z,8816.00
2023-11-30T10:40:25.723Z,8644.00
2023-11-30T10:41:25.728Z,8536.00
2023-11-30T10:42:25.759Z,8844.00
2023-11-30T10:43:25.671Z,9276.00
2023-11-30T10:44:25.682Z,9552.00
2023-11-30T10:45:25.681Z,9400.00
2023-11-30T10:46:25.756Z,9236.00
2023-11-30T10:47:25.626Z,9300.00
2023-11-30T10:48:25.791Z,9844.00
2023-11-30T10:49:25.684Z,10232.00
2023-11-30T10:50:25.597Z,10132.00
2023-11-30T10:51:25.602Z,10164.00
2023-11-30T10:52:25.594Z,10364.00
2023-11-30T10:53:25.558Z,10188.00
2023-11-30T10:54:25.618Z,10088.00
2023-11-30T10:55:25.544Z,10376.00
2023-11-30T10:56:25.528Z,10384.00
2023-11-30T10:57:25.596Z,10304.00
2023-11-30T10:58:25.502Z,10248.00
2023-11-30T10:59:25.517Z,10220.00
2023-11-30T11:00:25.553Z,10204.00
2023-11-30T11:01:25.616Z,10284.00
2023-11-30T11:02:25.558Z,10120.00
2023-11-30T11:03:25.525Z,9828.00
2023-11-30T11:04:26.202Z,9720.00
2023-11-30T11:05:25.452Z,9448.00
2023-11-30T11:06:25.440Z,9292.00
2023-11-30T11:07:25.432Z,9216.00
2023-11-30T11:08:25.424Z,9392.00
2023-11-30T11:09:25.426Z,9708.00
2023-11-30T11:10:25.383Z,10068.00
2023-11-30T11:11:25.372Z,10220.00
2023-11-30T11:12:25.375Z,10456.00
2023-11-30T11:13:25.396Z,10396.00
2023-11-30T11:14:25.346Z,10388.00
2023-11-30T11:15:25.376Z,10372.00
2023-11-30T11:16:25.331Z,10516.00
2023-11-30T11:17:25.409Z,10604.00
2023-11-30T11:18:25.321Z,10760.00
2023-11-30T11:19:25.289Z,10520.00
2023-11-30T11:20:26.477Z,10348.00
2023-11-30T11:21:25.313Z,10232.00
2023-11-30T11:22:25.463Z,10140.00
2023-11-30T11:23:25.268Z,10264.00
2023-11-30T11:24:25.255Z,9876.00
2023-11-30T11:25:25.240Z,9628.00
2023-11-30T11:26:25.616Z,9764.00
2023-11-30T11:27:25.218Z,9912.00
2023-11-30T11:28:25.195Z,10104.00
2023-11-30T11:29:30.973Z,10200.00
2023-11-30T11:30:26.214Z,10400.00
2023-11-30T11:31:25.183Z,10568.00
2023-11-30T11:32:26.002Z,10708.00
2023-11-30T11:33:25.209Z,10988.00
2023-11-30T11:34:25.148Z,10888.00
2023-11-30T11:35:25.124Z,10476.00
2023-11-30T11:36:25.980Z,10612.00
2023-11-30T11:37:25.101Z,11108.00
2023-11-30T11:38:25.118Z,11432.00
2023-11-30T11:39:25.107Z,11768.00
2023-11-30T11:40:25.087Z,11968.00
2023-11-30T11:41:25.053Z,11980.00
2023-11-30T11:42:25.072Z,12120.00
2023-11-30T11:43:25.038Z,12292.00
2023-11-30T11:44:25.411Z,12184.00
2023-11-30T11:45:25.102Z,11952.00
2023-11-30T11:46:25.126Z,12020.00
2023-11-30T11:47:25.071Z,11968.00
2023-11-30T11:48:24.991Z,11768.00
2023-11-30T11:49:24.963Z,11504.00
2023-11-30T11:50:24.965Z,11472.00
2023-11-30T11:51:26.393Z,11660.00
2023-11-30T11:52:24.953Z,11808.00
2023-11-30T11:53:24.925Z,11704.00
2023-11-30T11:54:24.937Z,11460.00
2023-11-30T11:55:24.917Z,11284.00
2023-11-30T11:56:24.885Z,11048.00
2023-11-30T11:57:26.285Z,10908.00
2023-11-30T11:58:24.878Z,11200.00
2023-11-30T11:59:24.858Z,11404.00
2023-11-30T12:00:24.863Z,11472.00
2023-11-30T12:01:24.941Z,11788.00
2023-11-30T12:02:24.884Z,12028.00
2023-11-30T12:03:25.766Z,12428.00
2023-11-30T12:04:24.867Z,12804.00
2023-11-30T12:05:24.794Z,12848.00
2023-11-30T12:06:24.821Z,12628.00
2023-11-30T12:07:24.789Z,12540.00
2023-11-30T12:08:24.759Z,12792.00
2023-11-30T12:09:24.800Z,13220.00
2023-11-30T12:10:24.739Z,13744.00
2023-11-30T12:11:24.725Z,14052.00
2023-11-30T12:12:24.808Z,14068.00
2023-11-30T12:13:24.722Z,14332.00
2023-11-30T12:14:24.706Z,14740.00
2023-11-30T12:15:24.714Z,15128.00
2023-11-30T12:16:24.719Z,15432.00
2023-11-30T12:17:24.708Z,15852.00
2023-11-30T12:18:24.715Z,16168.00
2023-11-30T12:19:24.639Z,16652.00
2023-11-30T12:20:24.625Z,17344.00
2023-11-30T12:21:24.661Z,17728.00
2023-11-30T12:22:24.606Z,17920.00
2023-11-30T12:23:24.630Z,17984.00
2023-11-30T12:24:24.627Z,17728.00
2023-11-30T12:25:24.589Z,17216.00
2023-11-30T12:26:24.582Z,16932.00
2023-11-30T12:27:24.573Z,16892.00
2023-11-30T12:28:24.545Z,16940.00
2023-11-30T12:29:24.534Z,16660.00
2023-11-30T12:30:25.019Z,16428.00
2023-11-30T12:31:24.602Z,16336.00
2023-11-30T12:32:24.510Z,16456.00
2023-11-30T12:33:24.620Z,16652.00
2023-11-30T12:34:24.487Z,16572.00
2023-11-30T12:35:24.463Z,16668.00
2023-11-30T12:36:24.492Z,16908.00
2023-11-30T12:37:24.443Z,17376.00
2023-11-30T12:38:24.454Z,17856.00
2023-11-30T12:39:24.486Z,18336.00